< < Back
Terminal Aerodrome Forecast


Current Version              Previous Versions:   1  2  3  4  5  6  7  8  9  

Terminal Aerodrome Forecast

696
FTUS42 KTAE 191604 AAB
TAFDHN
TAF AMD
KDHN 191604Z 1916/2012 22012KT 5SM -RA OVC100
     FM191800 22010G15KT P6SM BKN050
     FM200000 21011KT P6SM BKN250
     FM200300 19006KT P6SM OVC250
     FM200900 22008KT 5SM BR OVC001=

Latest METAR

124
SAUS70 KWBC 191900 RRQ
MTRDHN
METAR KDHN 191853Z 11007KT 9SM -RA BKN006 BKN010 OVC019 20/19 A2980 RMK
AO2 RAB1758 PRESFR SLP087 P0004 T02000189


USA.gov is the U.S. government's official web portal to all federal, state and local government web resources and services.